sensor_id;sensor_type;location;lat;lon;timestamp;P1;durP1;ratioP1;P2;durP2;ratioP2
13406;SDS011;6774;48.208;10.766;2023-07-09T00:01:55;9.97;;;4.67;;
13406;SDS011;6774;48.208;10.766;2023-07-09T00:04:23;3.30;;;3.00;;
13406;SDS011;6774;48.208;10.766;2023-07-09T00:06:51;7.40;;;3.87;;
13406;SDS011;6774;48.208;10.766;2023-07-09T00:09:20;14.23;;;6.87;;
13406;SDS011;6774;48.208;10.766;2023-07-09T00:11:48;11.80;;;5.30;;
13406;SDS011;6774;48.208;10.766;2023-07-09T00:14:17;6.03;;;3.70;;
13406;SDS011;6774;48.208;10.766;2023-07-09T00:16:46;4.57;;;3.40;;
13406;SDS011;6774;48.208;10.766;2023-07-09T00:19:16;4.13;;;3.80;;
13406;SDS011;6774;48.208;10.766;2023-07-09T00:21:45;3.00;;;2.80;;
13406;SDS011;6774;48.208;10.766;2023-07-09T00:24:15;7.33;;;4.40;;
13406;SDS011;6774;48.208;10.766;2023-07-09T00:26:43;5.70;;;4.50;;
13406;SDS011;6774;48.208;10.766;2023-07-09T00:29:12;2.90;;;2.70;;
13406;SDS011;6774;48.208;10.766;2023-07-09T00:31:39;3.50;;;3.30;;
13406;SDS011;6774;48.208;10.766;2023-07-09T00:34:10;5.50;;;3.90;;
13406;SDS011;6774;48.208;10.766;2023-07-09T00:36:40;4.50;;;4.07;;
13406;SDS011;6774;48.208;10.766;2023-07-09T00:39:12;5.73;;;3.30;;
13406;SDS011;6774;48.208;10.766;2023-07-09T00:41:44;5.27;;;4.77;;
13406;SDS011;6774;48.208;10.766;2023-07-09T00:44:24;7.73;;;4.03;;
13406;SDS011;6774;48.208;10.766;2023-07-09T00:50:03;3.70;;;3.40;;
13406;SDS011;6774;48.208;10.766;2023-07-09T00:52:37;5.73;;;4.70;;
13406;SDS011;6774;48.208;10.766;2023-07-09T00:55:12;6.90;;;4.70;;
13406;SDS011;6774;48.208;10.766;2023-07-09T00:57:42;7.90;;;4.17;;
13406;SDS011;6774;48.208;10.766;2023-07-09T01:00:23;12.07;;;5.03;;
13406;SDS011;6774;48.208;10.766;2023-07-09T01:02:55;9.17;;;4.07;;
13406;SDS011;6774;48.208;10.766;2023-07-09T01:05:25;3.77;;;3.47;;
13406;SDS011;6774;48.208;10.766;2023-07-09T01:07:54;6.90;;;3.80;;
13406;SDS011;6774;48.208;10.766;2023-07-09T01:10:24;4.77;;;3.57;;
13406;SDS011;6774;48.208;10.766;2023-07-09T01:12:52;7.30;;;3.90;;
13406;SDS011;6774;48.208;10.766;2023-07-09T01:15:20;4.93;;;4.60;;
13406;SDS011;6774;48.208;10.766;2023-07-09T01:17:47;6.57;;;4.60;;
13406;SDS011;6774;48.208;10.766;2023-07-09T01:20:20;5.47;;;4.23;;
13406;SDS011;6774;48.208;10.766;2023-07-09T01:22:50;3.37;;;2.63;;
13406;SDS011;6774;48.208;10.766;2023-07-09T01:25:21;3.30;;;3.10;;
13406;SDS011;6774;48.208;10.766;2023-07-09T01:27:49;2.73;;;2.63;;
13406;SDS011;6774;48.208;10.766;2023-07-09T01:30:19;6.37;;;2.67;;
13406;SDS011;6774;48.208;10.766;2023-07-09T01:32:49;3.57;;;3.27;;
13406;SDS011;6774;48.208;10.766;2023-07-09T01:35:19;3.30;;;2.83;;
13406;SDS011;6774;48.208;10.766;2023-07-09T01:37:48;5.17;;;4.67;;
13406;SDS011;6774;48.208;10.766;2023-07-09T01:40:19;5.50;;;3.57;;
13406;SDS011;6774;48.208;10.766;2023-07-09T01:42:58;8.37;;;3.60;;
13406;SDS011;6774;48.208;10.766;2023-07-09T01:45:27;9.83;;;4.63;;
13406;SDS011;6774;48.208;10.766;2023-07-09T01:47:56;4.77;;;3.60;;
13406;SDS011;6774;48.208;10.766;2023-07-09T01:50:24;4.47;;;3.97;;
13406;SDS011;6774;48.208;10.766;2023-07-09T01:52:56;2.97;;;2.77;;
13406;SDS011;6774;48.208;10.766;2023-07-09T01:55:25;2.53;;;2.43;;
13406;SDS011;6774;48.208;10.766;2023-07-09T01:57:53;2.70;;;2.50;;
13406;SDS011;6774;48.208;10.766;2023-07-09T02:00:22;3.80;;;2.63;;
13406;SDS011;6774;48.208;10.766;2023-07-09T02:02:50;3.40;;;3.20;;
13406;SDS011;6774;48.208;10.766;2023-07-09T02:05:20;6.23;;;3.53;;
13406;SDS011;6774;48.208;10.766;2023-07-09T02:07:48;2.77;;;2.57;;
13406;SDS011;6774;48.208;10.766;2023-07-09T02:10:17;2.90;;;2.70;;
13406;SDS011;6774;48.208;10.766;2023-07-09T02:12:46;6.47;;;3.23;;
13406;SDS011;6774;48.208;10.766;2023-07-09T02:15:15;4.50;;;3.73;;
13406;SDS011;6774;48.208;10.766;2023-07-09T02:17:43;9.47;;;5.03;;
13406;SDS011;6774;48.208;10.766;2023-07-09T02:20:11;9.43;;;5.17;;
13406;SDS011;6774;48.208;10.766;2023-07-09T02:22:41;5.73;;;3.60;;
13406;SDS011;6774;48.208;10.766;2023-07-09T02:25:09;22.27;;;5.40;;
13406;SDS011;6774;48.208;10.766;2023-07-09T02:27:38;16.17;;;5.87;;
13406;SDS011;6774;48.208;10.766;2023-07-09T02:30:07;4.60;;;4.10;;
13406;SDS011;6774;48.208;10.766;2023-07-09T02:32:35;4.47;;;4.17;;
13406;SDS011;6774;48.208;10.766;2023-07-09T02:35:03;5.33;;;4.80;;
13406;SDS011;6774;48.208;10.766;2023-07-09T02:37:32;6.40;;;4.57;;
13406;SDS011;6774;48.208;10.766;2023-07-09T02:40:00;10.23;;;4.53;;
13406;SDS011;6774;48.208;10.766;2023-07-09T02:42:29;6.43;;;5.30;;
13406;SDS011;6774;48.208;10.766;2023-07-09T02:44:59;14.77;;;6.80;;
13406;SDS011;6774;48.208;10.766;2023-07-09T02:47:29;4.67;;;4.27;;
13406;SDS011;6774;48.208;10.766;2023-07-09T02:49:59;7.77;;;5.00;;
13406;SDS011;6774;48.208;10.766;2023-07-09T02:52:26;19.80;;;6.17;;
13406;SDS011;6774;48.208;10.766;2023-07-09T02:54:54;6.47;;;4.37;;
13406;SDS011;6774;48.208;10.766;2023-07-09T02:57:22;8.33;;;5.17;;
13406;SDS011;6774;48.208;10.766;2023-07-09T02:59:50;5.80;;;5.27;;
13406;SDS011;6774;48.208;10.766;2023-07-09T03:02:19;6.53;;;4.37;;
13406;SDS011;6774;48.208;10.766;2023-07-09T03:04:47;8.20;;;4.37;;
13406;SDS011;6774;48.208;10.766;2023-07-09T03:07:15;4.50;;;4.23;;
13406;SDS011;6774;48.208;10.766;2023-07-09T03:09:43;7.60;;;5.77;;
13406;SDS011;6774;48.208;10.766;2023-07-09T03:12:11;9.93;;;4.30;;
13406;SDS011;6774;48.208;10.766;2023-07-09T03:14:39;7.70;;;6.87;;
13406;SDS011;6774;48.208;10.766;2023-07-09T03:17:06;4.53;;;4.23;;
13406;SDS011;6774;48.208;10.766;2023-07-09T03:19:35;8.70;;;4.73;;
13406;SDS011;6774;48.208;10.766;2023-07-09T03:22:03;4.33;;;3.93;;
13406;SDS011;6774;48.208;10.766;2023-07-09T03:24:32;5.67;;;3.63;;
13406;SDS011;6774;48.208;10.766;2023-07-09T03:27:00;4.27;;;3.97;;
13406;SDS011;6774;48.208;10.766;2023-07-09T03:29:28;6.33;;;4.30;;
13406;SDS011;6774;48.208;10.766;2023-07-09T03:31:56;4.60;;;3.77;;
13406;SDS011;6774;48.208;10.766;2023-07-09T03:34:23;7.47;;;4.20;;
13406;SDS011;6774;48.208;10.766;2023-07-09T03:36:53;8.70;;;4.70;;
13406;SDS011;6774;48.208;10.766;2023-07-09T03:39:20;3.83;;;3.63;;
13406;SDS011;6774;48.208;10.766;2023-07-09T03:41:48;5.13;;;4.27;;
13406;SDS011;6774;48.208;10.766;2023-07-09T03:44:16;5.30;;;3.53;;
13406;SDS011;6774;48.208;10.766;2023-07-09T03:46:44;4.67;;;4.37;;
13406;SDS011;6774;48.208;10.766;2023-07-09T03:49:12;6.23;;;3.93;;
13406;SDS011;6774;48.208;10.766;2023-07-09T03:51:39;4.87;;;4.13;;
13406;SDS011;6774;48.208;10.766;2023-07-09T03:54:09;6.50;;;5.20;;
13406;SDS011;6774;48.208;10.766;2023-07-09T03:56:36;8.60;;;5.47;;
13406;SDS011;6774;48.208;10.766;2023-07-09T03:59:04;5.33;;;3.60;;
13406;SDS011;6774;48.208;10.766;2023-07-09T04:01:32;5.10;;;4.20;;
13406;SDS011;6774;48.208;10.766;2023-07-09T04:04:00;4.37;;;3.63;;
13406;SDS011;6774;48.208;10.766;2023-07-09T04:06:28;4.60;;;4.17;;
13406;SDS011;6774;48.208;10.766;2023-07-09T04:08:56;8.17;;;5.23;;
13406;SDS011;6774;48.208;10.766;2023-07-09T04:11:25;5.73;;;5.23;;
13406;SDS011;6774;48.208;10.766;2023-07-09T04:13:52;5.53;;;4.77;;
13406;SDS011;6774;48.208;10.766;2023-07-09T04:16:20;7.13;;;4.77;;
13406;SDS011;6774;48.208;10.766;2023-07-09T04:18:48;5.40;;;4.90;;
13406;SDS011;6774;48.208;10.766;2023-07-09T04:21:16;6.47;;;4.17;;
13406;SDS011;6774;48.208;10.766;2023-07-09T04:23:44;10.93;;;4.97;;
13406;SDS011;6774;48.208;10.766;2023-07-09T04:26:12;6.87;;;4.10;;
13406;SDS011;6774;48.208;10.766;2023-07-09T04:28:42;5.37;;;3.97;;
13406;SDS011;6774;48.208;10.766;2023-07-09T04:31:10;11.10;;;6.60;;
13406;SDS011;6774;48.208;10.766;2023-07-09T04:33:38;4.23;;;3.83;;
13406;SDS011;6774;48.208;10.766;2023-07-09T04:36:05;4.70;;;4.07;;
13406;SDS011;6774;48.208;10.766;2023-07-09T04:38:35;4.60;;;4.20;;
13406;SDS011;6774;48.208;10.766;2023-07-09T04:41:02;4.27;;;3.87;;
13406;SDS011;6774;48.208;10.766;2023-07-09T04:43:30;4.93;;;3.93;;
13406;SDS011;6774;48.208;10.766;2023-07-09T04:46:00;3.30;;;3.10;;
13406;SDS011;6774;48.208;10.766;2023-07-09T04:48:28;2.90;;;2.70;;
13406;SDS011;6774;48.208;10.766;2023-07-09T04:50:56;6.50;;;3.27;;
13406;SDS011;6774;48.208;10.766;2023-07-09T04:53:26;4.83;;;4.40;;
13406;SDS011;6774;48.208;10.766;2023-07-09T04:55:53;4.80;;;3.70;;
13406;SDS011;6774;48.208;10.766;2023-07-09T04:58:22;5.33;;;3.80;;
13406;SDS011;6774;48.208;10.766;2023-07-09T05:00:50;4.07;;;3.57;;
13406;SDS011;6774;48.208;10.766;2023-07-09T05:03:19;4.23;;;3.47;;
13406;SDS011;6774;48.208;10.766;2023-07-09T05:05:47;4.33;;;3.13;;
13406;SDS011;6774;48.208;10.766;2023-07-09T05:08:15;3.83;;;3.63;;
13406;SDS011;6774;48.208;10.766;2023-07-09T05:10:44;3.20;;;2.90;;
13406;SDS011;6774;48.208;10.766;2023-07-09T05:13:14;3.57;;;3.30;;
13406;SDS011;6774;48.208;10.766;2023-07-09T05:15:42;3.57;;;3.23;;
13406;SDS011;6774;48.208;10.766;2023-07-09T05:18:12;3.73;;;3.43;;
13406;SDS011;6774;48.208;10.766;2023-07-09T05:20:42;4.27;;;3.97;;
13406;SDS011;6774;48.208;10.766;2023-07-09T05:23:10;3.70;;;3.40;;
13406;SDS011;6774;48.208;10.766;2023-07-09T05:25:38;4.47;;;3.13;;
13406;SDS011;6774;48.208;10.766;2023-07-09T05:28:06;4.43;;;2.73;;
13406;SDS011;6774;48.208;10.766;2023-07-09T05:30:34;3.97;;;3.60;;
13406;SDS011;6774;48.208;10.766;2023-07-09T05:33:01;4.60;;;3.73;;
13406;SDS011;6774;48.208;10.766;2023-07-09T05:35:29;4.10;;;2.77;;
13406;SDS011;6774;48.208;10.766;2023-07-09T05:37:59;3.57;;;3.37;;
13406;SDS011;6774;48.208;10.766;2023-07-09T05:40:27;3.03;;;2.73;;
13406;SDS011;6774;48.208;10.766;2023-07-09T05:42:54;3.10;;;2.90;;
13406;SDS011;6774;48.208;10.766;2023-07-09T05:45:22;3.00;;;2.80;;
13406;SDS011;6774;48.208;10.766;2023-07-09T05:47:50;7.43;;;4.33;;
13406;SDS011;6774;48.208;10.766;2023-07-09T05:50:18;4.97;;;4.20;;
13406;SDS011;6774;48.208;10.766;2023-07-09T05:52:46;3.57;;;3.37;;
13406;SDS011;6774;48.208;10.766;2023-07-09T05:55:15;2.93;;;2.73;;
13406;SDS011;6774;48.208;10.766;2023-07-09T05:57:43;2.73;;;2.53;;
13406;SDS011;6774;48.208;10.766;2023-07-09T06:00:11;2.97;;;2.77;;
13406;SDS011;6774;48.208;10.766;2023-07-09T06:02:40;8.53;;;3.43;;
13406;SDS011;6774;48.208;10.766;2023-07-09T06:05:08;2.53;;;2.40;;
13406;SDS011;6774;48.208;10.766;2023-07-09T06:07:37;3.30;;;3.00;;
13406;SDS011;6774;48.208;10.766;2023-07-09T06:10:06;2.30;;;2.20;;
13406;SDS011;6774;48.208;10.766;2023-07-09T06:12:37;3.23;;;3.03;;
13406;SDS011;6774;48.208;10.766;2023-07-09T06:15:05;2.90;;;2.70;;
13406;SDS011;6774;48.208;10.766;2023-07-09T06:17:35;3.53;;;3.23;;
13406;SDS011;6774;48.208;10.766;2023-07-09T06:20:03;2.80;;;2.70;;
13406;SDS011;6774;48.208;10.766;2023-07-09T06:22:31;6.60;;;2.97;;
13406;SDS011;6774;48.208;10.766;2023-07-09T06:24:58;3.23;;;3.03;;
13406;SDS011;6774;48.208;10.766;2023-07-09T06:27:26;3.33;;;3.10;;
13406;SDS011;6774;48.208;10.766;2023-07-09T06:29:55;3.53;;;3.33;;
13406;SDS011;6774;48.208;10.766;2023-07-09T06:32:23;3.87;;;3.30;;
13406;SDS011;6774;48.208;10.766;2023-07-09T06:34:50;3.97;;;3.60;;
13406;SDS011;6774;48.208;10.766;2023-07-09T06:37:18;4.67;;;3.20;;
13406;SDS011;6774;48.208;10.766;2023-07-09T06:39:46;3.67;;;3.37;;
13406;SDS011;6774;48.208;10.766;2023-07-09T06:42:14;3.27;;;2.93;;
13406;SDS011;6774;48.208;10.766;2023-07-09T06:45:00;3.03;;;2.20;;
13406;SDS011;6774;48.208;10.766;2023-07-09T06:47:30;5.07;;;3.65;;
13406;SDS011;6774;48.208;10.766;2023-07-09T06:49:58;2.47;;;2.38;;
13406;SDS011;6774;48.208;10.766;2023-07-09T06:52:26;3.60;;;2.78;;
13406;SDS011;6774;48.208;10.766;2023-07-09T06:54:57;2.28;;;2.17;;
13406;SDS011;6774;48.208;10.766;2023-07-09T06:57:24;2.47;;;2.38;;
13406;SDS011;6774;48.208;10.766;2023-07-09T06:59:52;2.80;;;2.55;;
13406;SDS011;6774;48.208;10.766;2023-07-09T07:02:22;2.35;;;2.15;;
13406;SDS011;6774;48.208;10.766;2023-07-09T07:04:50;3.90;;;3.67;;
13406;SDS011;6774;48.208;10.766;2023-07-09T07:07:19;2.00;;;1.90;;
13406;SDS011;6774;48.208;10.766;2023-07-09T07:09:47;2.95;;;2.75;;
13406;SDS011;6774;48.208;10.766;2023-07-09T07:12:19;2.85;;;2.63;;
13406;SDS011;6774;48.208;10.766;2023-07-09T07:14:50;2.88;;;2.78;;
13406;SDS011;6774;48.208;10.766;2023-07-09T07:17:18;3.15;;;2.50;;
13406;SDS011;6774;48.208;10.766;2023-07-09T07:19:47;2.85;;;2.65;;
13406;SDS011;6774;48.208;10.766;2023-07-09T07:22:17;7.00;;;2.67;;
13406;SDS011;6774;48.208;10.766;2023-07-09T07:24:44;5.65;;;3.15;;
13406;SDS011;6774;48.208;10.766;2023-07-09T07:27:12;3.03;;;2.90;;
13406;SDS011;6774;48.208;10.766;2023-07-09T07:29:40;2.42;;;2.20;;
13406;SDS011;6774;48.208;10.766;2023-07-09T07:32:08;2.55;;;2.35;;
13406;SDS011;6774;48.208;10.766;2023-07-09T07:34:36;8.63;;;2.42;;
13406;SDS011;6774;48.208;10.766;2023-07-09T07:37:05;2.95;;;2.17;;
13406;SDS011;6774;48.208;10.766;2023-07-09T07:39:32;2.63;;;2.53;;
13406;SDS011;6774;48.208;10.766;2023-07-09T07:42:00;3.15;;;2.90;;
13406;SDS011;6774;48.208;10.766;2023-07-09T07:44:31;2.42;;;2.25;;
13406;SDS011;6774;48.208;10.766;2023-07-09T07:46:59;2.30;;;2.20;;
13406;SDS011;6774;48.208;10.766;2023-07-09T07:49:27;1.80;;;1.67;;
13406;SDS011;6774;48.208;10.766;2023-07-09T07:51:55;2.63;;;2.53;;
13406;SDS011;6774;48.208;10.766;2023-07-09T07:54:24;3.20;;;3.00;;
13406;SDS011;6774;48.208;10.766;2023-07-09T07:56:52;4.07;;;2.33;;
13406;SDS011;6774;48.208;10.766;2023-07-09T07:59:20;2.08;;;1.98;;
13406;SDS011;6774;48.208;10.766;2023-07-09T08:01:47;3.67;;;3.33;;
13406;SDS011;6774;48.208;10.766;2023-07-09T08:04:16;2.03;;;1.92;;
13406;SDS011;6774;48.208;10.766;2023-07-09T08:06:44;2.05;;;1.95;;
13406;SDS011;6774;48.208;10.766;2023-07-09T08:09:12;3.00;;;2.80;;
13406;SDS011;6774;48.208;10.766;2023-07-09T08:11:42;2.53;;;2.42;;
13406;SDS011;6774;48.208;10.766;2023-07-09T08:14:09;4.22;;;2.17;;
13406;SDS011;6774;48.208;10.766;2023-07-09T08:16:38;2.28;;;2.17;;
13406;SDS011;6774;48.208;10.766;2023-07-09T08:19:06;2.40;;;2.30;;
13406;SDS011;6774;48.208;10.766;2023-07-09T08:21:33;3.33;;;2.58;;
13406;SDS011;6774;48.208;10.766;2023-07-09T08:24:01;2.10;;;2.00;;
13406;SDS011;6774;48.208;10.766;2023-07-09T08:26:29;2.08;;;1.98;;
13406;SDS011;6774;48.208;10.766;2023-07-09T08:28:59;4.30;;;2.38;;
13406;SDS011;6774;48.208;10.766;2023-07-09T08:31:26;3.00;;;2.88;;
13406;SDS011;6774;48.208;10.766;2023-07-09T08:33:54;2.55;;;2.35;;
13406;SDS011;6774;48.208;10.766;2023-07-09T08:36:22;2.15;;;1.95;;
13406;SDS011;6774;48.208;10.766;2023-07-09T08:38:50;3.75;;;2.20;;
13406;SDS011;6774;48.208;10.766;2023-07-09T08:41:25;2.00;;;1.90;;
13406;SDS011;6774;48.208;10.766;2023-07-09T08:44:09;3.35;;;1.40;;
13406;SDS011;6774;48.208;10.766;2023-07-09T08:46:54;1.75;;;1.65;;
13406;SDS011;6774;48.208;10.766;2023-07-09T08:49:31;1.52;;;1.42;;
13406;SDS011;6774;48.208;10.766;2023-07-09T08:52:05;1.65;;;1.55;;
13406;SDS011;6774;48.208;10.766;2023-07-09T08:54:41;3.95;;;1.75;;
13406;SDS011;6774;48.208;10.766;2023-07-09T08:57:14;2.13;;;2.03;;
13406;SDS011;6774;48.208;10.766;2023-07-09T08:59:50;2.20;;;1.88;;
13406;SDS011;6774;48.208;10.766;2023-07-09T09:02:27;2.53;;;2.40;;
13406;SDS011;6774;48.208;10.766;2023-07-09T09:05:01;3.70;;;1.42;;
13406;SDS011;6774;48.208;10.766;2023-07-09T09:07:33;1.95;;;1.83;;
13406;SDS011;6774;48.208;10.766;2023-07-09T09:10:10;3.30;;;2.03;;
13406;SDS011;6774;48.208;10.766;2023-07-09T09:12:43;3.72;;;1.95;;
13406;SDS011;6774;48.208;10.766;2023-07-09T09:15:22;1.48;;;1.38;;
13406;SDS011;6774;48.208;10.766;2023-07-09T09:17:53;3.22;;;2.35;;
13406;SDS011;6774;48.208;10.766;2023-07-09T09:20:25;4.57;;;2.60;;
13406;SDS011;6774;48.208;10.766;2023-07-09T09:22:56;2.72;;;2.53;;
13406;SDS011;6774;48.208;10.766;2023-07-09T09:25:32;2.45;;;2.25;;
13406;SDS011;6774;48.208;10.766;2023-07-09T09:28:01;1.98;;;1.88;;
13406;SDS011;6774;48.208;10.766;2023-07-09T09:30:31;1.85;;;1.75;;
13406;SDS011;6774;48.208;10.766;2023-07-09T09:32:59;1.80;;;1.70;;
13406;SDS011;6774;48.208;10.766;2023-07-09T09:35:29;1.42;;;1.33;;
13406;SDS011;6774;48.208;10.766;2023-07-09T09:38:00;1.48;;;1.40;;
13406;SDS011;6774;48.208;10.766;2023-07-09T09:40:29;3.65;;;2.50;;
13406;SDS011;6774;48.208;10.766;2023-07-09T09:43:02;3.28;;;1.83;;
13406;SDS011;6774;48.208;10.766;2023-07-09T09:45:38;2.97;;;1.80;;
13406;SDS011;6774;48.208;10.766;2023-07-09T09:48:10;6.03;;;1.45;;
13406;SDS011;6774;48.208;10.766;2023-07-09T09:50:42;2.03;;;1.35;;
13406;SDS011;6774;48.208;10.766;2023-07-09T09:53:16;2.22;;;2.13;;
13406;SDS011;6774;48.208;10.766;2023-07-09T09:55:47;1.85;;;1.50;;
13406;SDS011;6774;48.208;10.766;2023-07-09T09:58:16;2.00;;;1.40;;
13406;SDS011;6774;48.208;10.766;2023-07-09T10:00:50;2.15;;;1.75;;
13406;SDS011;6774;48.208;10.766;2023-07-09T10:03:19;2.15;;;1.95;;
13406;SDS011;6774;48.208;10.766;2023-07-09T10:05:49;1.65;;;1.55;;
13406;SDS011;6774;48.208;10.766;2023-07-09T10:08:22;3.50;;;2.35;;
13406;SDS011;6774;48.208;10.766;2023-07-09T10:11:04;1.90;;;1.80;;
13406;SDS011;6774;48.208;10.766;2023-07-09T10:13:40;1.63;;;1.52;;
13406;SDS011;6774;48.208;10.766;2023-07-09T10:16:13;2.28;;;1.67;;
13406;SDS011;6774;48.208;10.766;2023-07-09T10:18:49;1.88;;;1.77;;
13406;SDS011;6774;48.208;10.766;2023-07-09T10:21:23;1.42;;;1.33;;
13406;SDS011;6774;48.208;10.766;2023-07-09T10:24:00;2.28;;;1.60;;
13406;SDS011;6774;48.208;10.766;2023-07-09T10:26:38;2.67;;;1.85;;
13406;SDS011;6774;48.208;10.766;2023-07-09T10:29:18;3.60;;;0.95;;
13406;SDS011;6774;48.208;10.766;2023-07-09T10:32:01;1.88;;;1.77;;
13406;SDS011;6774;48.208;10.766;2023-07-09T10:34:38;2.03;;;1.90;;
13406;SDS011;6774;48.208;10.766;2023-07-09T10:37:21;1.80;;;1.70;;
13406;SDS011;6774;48.208;10.766;2023-07-09T10:40:03;1.23;;;1.13;;
13406;SDS011;6774;48.208;10.766;2023-07-09T10:42:37;4.40;;;1.75;;
13406;SDS011;6774;48.208;10.766;2023-07-09T10:45:10;3.42;;;1.77;;
13406;SDS011;6774;48.208;10.766;2023-07-09T10:47:43;3.55;;;1.77;;
13406;SDS011;6774;48.208;10.766;2023-07-09T10:50:15;1.83;;;1.60;;
13406;SDS011;6774;48.208;10.766;2023-07-09T10:52:46;3.45;;;1.83;;
13406;SDS011;6774;48.208;10.766;2023-07-09T10:55:21;1.65;;;1.13;;
13406;SDS011;6774;48.208;10.766;2023-07-09T10:57:54;2.10;;;2.00;;
13406;SDS011;6774;48.208;10.766;2023-07-09T11:00:30;2.40;;;2.20;;
13406;SDS011;6774;48.208;10.766;2023-07-09T11:03:03;1.67;;;1.58;;
13406;SDS011;6774;48.208;10.766;2023-07-09T11:05:36;1.67;;;1.58;;
13406;SDS011;6774;48.208;10.766;2023-07-09T11:08:07;1.70;;;1.60;;
13406;SDS011;6774;48.208;10.766;2023-07-09T11:10:40;3.70;;;3.15;;
13406;SDS011;6774;48.208;10.766;2023-07-09T11:13:19;4.70;;;2.78;;
13406;SDS011;6774;48.208;10.766;2023-07-09T11:16:12;2.17;;;1.98;;
13406;SDS011;6774;48.208;10.766;2023-07-09T11:18:51;1.92;;;1.83;;
13406;SDS011;6774;48.208;10.766;2023-07-09T11:21:22;1.63;;;1.52;;
13406;SDS011;6774;48.208;10.766;2023-07-09T11:23:50;1.88;;;1.73;;
13406;SDS011;6774;48.208;10.766;2023-07-09T11:26:23;4.38;;;1.58;;
13406;SDS011;6774;48.208;10.766;2023-07-09T11:28:53;2.50;;;2.33;;
13406;SDS011;6774;48.208;10.766;2023-07-09T11:31:24;3.42;;;1.65;;
13406;SDS011;6774;48.208;10.766;2023-07-09T11:34:01;2.08;;;1.98;;
13406;SDS011;6774;48.208;10.766;2023-07-09T11:36:35;2.10;;;1.98;;
13406;SDS011;6774;48.208;10.766;2023-07-09T11:39:21;4.72;;;2.40;;
13406;SDS011;6774;48.208;10.766;2023-07-09T11:41:50;11.70;;;3.53;;
13406;SDS011;6774;48.208;10.766;2023-07-09T11:44:19;5.50;;;2.42;;
13406;SDS011;6774;48.208;10.766;2023-07-09T11:46:54;1.15;;;1.13;;
13406;SDS011;6774;48.208;10.766;2023-07-09T11:49:31;1.75;;;1.65;;
13406;SDS011;6774;48.208;10.766;2023-07-09T11:52:06;1.52;;;1.42;;
13406;SDS011;6774;48.208;10.766;2023-07-09T11:54:37;2.13;;;2.03;;
13406;SDS011;6774;48.208;10.766;2023-07-09T11:57:09;2.47;;;2.28;;
13406;SDS011;6774;48.208;10.766;2023-07-09T11:59:39;1.38;;;1.27;;
13406;SDS011;6774;48.208;10.766;2023-07-09T12:02:12;1.35;;;1.35;;
13406;SDS011;6774;48.208;10.766;2023-07-09T12:04:44;2.17;;;1.67;;
13406;SDS011;6774;48.208;10.766;2023-07-09T12:07:15;1.98;;;1.88;;
13406;SDS011;6774;48.208;10.766;2023-07-09T12:09:46;2.13;;;2.03;;
13406;SDS011;6774;48.208;10.766;2023-07-09T12:12:20;2.10;;;2.00;;
13406;SDS011;6774;48.208;10.766;2023-07-09T12:14:50;1.70;;;1.10;;
13406;SDS011;6774;48.208;10.766;2023-07-09T12:17:19;2.45;;;2.25;;
13406;SDS011;6774;48.208;10.766;2023-07-09T12:19:53;2.20;;;1.77;;
13406;SDS011;6774;48.208;10.766;2023-07-09T12:22:21;2.42;;;2.22;;
13406;SDS011;6774;48.208;10.766;2023-07-09T12:24:49;2.55;;;2.35;;
13406;SDS011;6774;48.208;10.766;2023-07-09T12:27:21;8.82;;;2.33;;
13406;SDS011;6774;48.208;10.766;2023-07-09T12:29:52;1.83;;;1.73;;
13406;SDS011;6774;48.208;10.766;2023-07-09T12:32:21;1.75;;;1.65;;
13406;SDS011;6774;48.208;10.766;2023-07-09T12:34:55;2.30;;;1.58;;
13406;SDS011;6774;48.208;10.766;2023-07-09T12:37:24;3.90;;;2.30;;
13406;SDS011;6774;48.208;10.766;2023-07-09T12:39:54;1.63;;;1.52;;
13406;SDS011;6774;48.208;10.766;2023-07-09T12:42:24;2.08;;;1.98;;
13406;SDS011;6774;48.208;10.766;2023-07-09T12:44:57;6.05;;;3.15;;
13406;SDS011;6774;48.208;10.766;2023-07-09T12:47:25;2.53;;;2.42;;
13406;SDS011;6774;48.208;10.766;2023-07-09T12:50:01;1.85;;;1.70;;
13406;SDS011;6774;48.208;10.766;2023-07-09T12:52:30;2.03;;;1.50;;
13406;SDS011;6774;48.208;10.766;2023-07-09T12:54:59;1.75;;;1.65;;
13406;SDS011;6774;48.208;10.766;2023-07-09T12:57:29;2.00;;;1.75;;
13406;SDS011;6774;48.208;10.766;2023-07-09T12:59:58;1.90;;;1.80;;
13406;SDS011;6774;48.208;10.766;2023-07-09T13:02:26;2.20;;;2.00;;
13406;SDS011;6774;48.208;10.766;2023-07-09T13:05:01;1.92;;;1.83;;
13406;SDS011;6774;48.208;10.766;2023-07-09T13:07:32;2.08;;;1.98;;
13406;SDS011;6774;48.208;10.766;2023-07-09T13:10:06;3.30;;;1.73;;
13406;SDS011;6774;48.208;10.766;2023-07-09T13:12:44;1.52;;;1.33;;
13406;SDS011;6774;48.208;10.766;2023-07-09T13:18:08;5.22;;;2.50;;
13406;SDS011;6774;48.208;10.766;2023-07-09T13:20:39;6.45;;;2.38;;
13406;SDS011;6774;48.208;10.766;2023-07-09T13:23:09;2.20;;;2.10;;
13406;SDS011;6774;48.208;10.766;2023-07-09T13:25:39;2.00;;;1.90;;
13406;SDS011;6774;48.208;10.766;2023-07-09T13:28:17;4.43;;;2.78;;
13406;SDS011;6774;48.208;10.766;2023-07-09T13:30:47;1.75;;;1.65;;
13406;SDS011;6774;48.208;10.766;2023-07-09T13:33:16;2.17;;;2.08;;
13406;SDS011;6774;48.208;10.766;2023-07-09T13:35:45;1.48;;;1.38;;
13406;SDS011;6774;48.208;10.766;2023-07-09T13:38:14;2.30;;;2.10;;
13406;SDS011;6774;48.208;10.766;2023-07-09T13:40:44;2.45;;;2.25;;
13406;SDS011;6774;48.208;10.766;2023-07-09T13:43:14;3.05;;;1.42;;
13406;SDS011;6774;48.208;10.766;2023-07-09T13:45:43;1.80;;;1.42;;
13406;SDS011;6774;48.208;10.766;2023-07-09T13:48:14;1.95;;;1.80;;
13406;SDS011;6774;48.208;10.766;2023-07-09T13:50:46;1.58;;;1.20;;
13406;SDS011;6774;48.208;10.766;2023-07-09T13:53:17;3.22;;;2.08;;
13406;SDS011;6774;48.208;10.766;2023-07-09T13:55:48;3.95;;;1.80;;
13406;SDS011;6774;48.208;10.766;2023-07-09T13:58:17;1.45;;;1.35;;
13406;SDS011;6774;48.208;10.766;2023-07-09T14:00:48;1.75;;;1.65;;
13406;SDS011;6774;48.208;10.766;2023-07-09T14:03:18;1.35;;;1.25;;
13406;SDS011;6774;48.208;10.766;2023-07-09T14:05:54;2.97;;;2.78;;
13406;SDS011;6774;48.208;10.766;2023-07-09T14:08:22;1.90;;;1.80;;
13406;SDS011;6774;48.208;10.766;2023-07-09T14:10:49;3.65;;;1.95;;
13406;SDS011;6774;48.208;10.766;2023-07-09T14:13:18;3.20;;;2.58;;
13406;SDS011;6774;48.208;10.766;2023-07-09T14:15:48;2.63;;;1.58;;
13406;SDS011;6774;48.208;10.766;2023-07-09T14:18:17;1.90;;;1.80;;
13406;SDS011;6774;48.208;10.766;2023-07-09T14:20:46;2.30;;;1.80;;
13406;SDS011;6774;48.208;10.766;2023-07-09T14:23:17;3.72;;;1.90;;
13406;SDS011;6774;48.208;10.766;2023-07-09T14:25:45;3.38;;;2.80;;
13406;SDS011;6774;48.208;10.766;2023-07-09T14:28:15;3.28;;;2.10;;
13406;SDS011;6774;48.208;10.766;2023-07-09T14:30:44;2.65;;;2.45;;
13406;SDS011;6774;48.208;10.766;2023-07-09T14:33:14;5.18;;;2.42;;
13406;SDS011;6774;48.208;10.766;2023-07-09T14:35:43;3.25;;;2.95;;
13406;SDS011;6774;48.208;10.766;2023-07-09T14:38:16;3.90;;;2.78;;
13406;SDS011;6774;48.208;10.766;2023-07-09T14:40:46;2.88;;;2.20;;
13406;SDS011;6774;48.208;10.766;2023-07-09T14:43:16;2.55;;;2.45;;
13406;SDS011;6774;48.208;10.766;2023-07-09T14:45:44;9.90;;;9.23;;
13406;SDS011;6774;48.208;10.766;2023-07-09T14:48:13;2.22;;;2.05;;
13406;SDS011;6774;48.208;10.766;2023-07-09T14:50:43;3.38;;;2.00;;
13406;SDS011;6774;48.208;10.766;2023-07-09T14:53:16;3.67;;;3.38;;
13406;SDS011;6774;48.208;10.766;2023-07-09T14:55:47;2.45;;;2.15;;
13406;SDS011;6774;48.208;10.766;2023-07-09T14:58:16;3.30;;;2.38;;
13406;SDS011;6774;48.208;10.766;2023-07-09T15:00:45;2.47;;;1.90;;
13406;SDS011;6774;48.208;10.766;2023-07-09T15:03:15;5.07;;;2.13;;
13406;SDS011;6774;48.208;10.766;2023-07-09T15:05:46;2.17;;;2.08;;
13406;SDS011;6774;48.208;10.766;2023-07-09T15:08:16;4.20;;;2.08;;
13406;SDS011;6774;48.208;10.766;2023-07-09T15:10:46;4.72;;;2.55;;
13406;SDS011;6774;48.208;10.766;2023-07-09T15:13:18;2.70;;;1.70;;